sensor_id;sensor_type;location;lat;lon;timestamp;P1;durP1;ratioP1;P2;durP2;ratioP2
53961;SDS011;39868;53.398;6.564;2024-02-23T00:02:25;15.13;;;14.27;;
53961;SDS011;39868;53.398;6.564;2024-02-23T00:04:52;14.93;;;14.25;;
53961;SDS011;39868;53.398;6.564;2024-02-23T00:07:19;15.85;;;14.85;;
53961;SDS011;39868;53.398;6.564;2024-02-23T00:09:47;15.95;;;15.25;;
53961;SDS011;39868;53.398;6.564;2024-02-23T00:12:14;16.52;;;15.52;;
53961;SDS011;39868;53.398;6.564;2024-02-23T00:14:41;16.30;;;15.60;;
53961;SDS011;39868;53.398;6.564;2024-02-23T00:17:09;16.67;;;15.52;;
53961;SDS011;39868;53.398;6.564;2024-02-23T00:19:36;17.02;;;15.88;;
53961;SDS011;39868;53.398;6.564;2024-02-23T00:22:03;17.05;;;16.25;;
53961;SDS011;39868;53.398;6.564;2024-02-23T00:24:34;16.77;;;15.60;;
53961;SDS011;39868;53.398;6.564;2024-02-23T00:27:03;16.50;;;15.70;;
53961;SDS011;39868;53.398;6.564;2024-02-23T00:29:31;17.20;;;15.98;;
53961;SDS011;39868;53.398;6.564;2024-02-23T00:31:58;17.15;;;16.40;;
53961;SDS011;39868;53.398;6.564;2024-02-23T00:34:25;17.30;;;16.20;;
53961;SDS011;39868;53.398;6.564;2024-02-23T00:36:53;17.70;;;16.60;;
53961;SDS011;39868;53.398;6.564;2024-02-23T00:39:20;17.10;;;16.20;;
53961;SDS011;39868;53.398;6.564;2024-02-23T00:41:47;17.00;;;16.10;;
53961;SDS011;39868;53.398;6.564;2024-02-23T00:44:14;16.98;;;15.98;;
53961;SDS011;39868;53.398;6.564;2024-02-23T00:46:41;17.40;;;16.30;;
53961;SDS011;39868;53.398;6.564;2024-02-23T00:49:09;17.08;;;16.13;;
53961;SDS011;39868;53.398;6.564;2024-02-23T00:51:36;17.52;;;16.63;;
53961;SDS011;39868;53.398;6.564;2024-02-23T00:54:03;17.02;;;16.08;;
53961;SDS011;39868;53.398;6.564;2024-02-23T00:56:30;17.92;;;16.70;;
53961;SDS011;39868;53.398;6.564;2024-02-23T00:59:10;18.03;;;16.90;;
53961;SDS011;39868;53.398;6.564;2024-02-23T01:01:38;18.53;;;17.30;;
53961;SDS011;39868;53.398;6.564;2024-02-23T01:04:05;18.55;;;17.10;;
53961;SDS011;39868;53.398;6.564;2024-02-23T01:06:32;17.70;;;16.70;;
53961;SDS011;39868;53.398;6.564;2024-02-23T01:09:00;18.00;;;16.55;;
53961;SDS011;39868;53.398;6.564;2024-02-23T01:11:27;17.17;;;16.35;;
53961;SDS011;39868;53.398;6.564;2024-02-23T01:13:54;17.20;;;16.27;;
53961;SDS011;39868;53.398;6.564;2024-02-23T01:16:21;16.83;;;16.10;;
53961;SDS011;39868;53.398;6.564;2024-02-23T01:18:49;17.33;;;16.53;;
53961;SDS011;39868;53.398;6.564;2024-02-23T01:21:16;17.08;;;16.17;;
53961;SDS011;39868;53.398;6.564;2024-02-23T01:23:43;16.98;;;16.17;;
53961;SDS011;39868;53.398;6.564;2024-02-23T01:26:11;17.65;;;16.38;;
53961;SDS011;39868;53.398;6.564;2024-02-23T01:28:39;17.77;;;16.85;;
53961;SDS011;39868;53.398;6.564;2024-02-23T01:31:11;17.60;;;16.70;;
53961;SDS011;39868;53.398;6.564;2024-02-23T01:33:38;18.05;;;16.85;;
53961;SDS011;39868;53.398;6.564;2024-02-23T01:36:06;18.07;;;17.00;;
53961;SDS011;39868;53.398;6.564;2024-02-23T01:38:34;18.03;;;16.90;;
53961;SDS011;39868;53.398;6.564;2024-02-23T01:41:02;17.33;;;16.53;;
53961;SDS011;39868;53.398;6.564;2024-02-23T01:43:29;17.93;;;16.90;;
53961;SDS011;39868;53.398;6.564;2024-02-23T01:45:56;18.53;;;17.43;;
53961;SDS011;39868;53.398;6.564;2024-02-23T01:48:24;17.57;;;16.77;;
53961;SDS011;39868;53.398;6.564;2024-02-23T01:50:51;18.17;;;17.13;;
53961;SDS011;39868;53.398;6.564;2024-02-23T01:53:20;18.73;;;17.73;;
53961;SDS011;39868;53.398;6.564;2024-02-23T01:55:48;19.43;;;18.10;;
53961;SDS011;39868;53.398;6.564;2024-02-23T01:58:16;19.27;;;17.67;;
53961;SDS011;39868;53.398;6.564;2024-02-23T02:00:44;18.80;;;17.47;;
53961;SDS011;39868;53.398;6.564;2024-02-23T02:03:12;19.33;;;17.93;;
53961;SDS011;39868;53.398;6.564;2024-02-23T02:05:39;18.63;;;17.43;;
53961;SDS011;39868;53.398;6.564;2024-02-23T02:08:06;19.27;;;17.87;;
53961;SDS011;39868;53.398;6.564;2024-02-23T02:10:34;18.70;;;17.33;;
53961;SDS011;39868;53.398;6.564;2024-02-23T02:13:05;18.80;;;17.45;;
53961;SDS011;39868;53.398;6.564;2024-02-23T02:15:32;18.70;;;17.53;;
53961;SDS011;39868;53.398;6.564;2024-02-23T02:17:59;18.05;;;17.02;;
53961;SDS011;39868;53.398;6.564;2024-02-23T02:20:27;18.23;;;17.02;;
53961;SDS011;39868;53.398;6.564;2024-02-23T02:22:58;19.05;;;17.58;;
53961;SDS011;39868;53.398;6.564;2024-02-23T02:25:26;18.73;;;17.50;;
53961;SDS011;39868;53.398;6.564;2024-02-23T02:27:53;18.75;;;17.52;;
53961;SDS011;39868;53.398;6.564;2024-02-23T02:30:20;18.38;;;16.75;;
53961;SDS011;39868;53.398;6.564;2024-02-23T02:32:47;17.77;;;16.75;;
53961;SDS011;39868;53.398;6.564;2024-02-23T02:35:15;17.85;;;16.75;;
53961;SDS011;39868;53.398;6.564;2024-02-23T02:37:42;18.30;;;17.25;;
53961;SDS011;39868;53.398;6.564;2024-02-23T02:40:09;17.65;;;16.48;;
53961;SDS011;39868;53.398;6.564;2024-02-23T02:42:37;18.73;;;17.10;;
53961;SDS011;39868;53.398;6.564;2024-02-23T02:45:04;18.85;;;17.65;;
53961;SDS011;39868;53.398;6.564;2024-02-23T02:47:31;18.60;;;17.38;;
53961;SDS011;39868;53.398;6.564;2024-02-23T02:49:59;17.88;;;16.83;;
53961;SDS011;39868;53.398;6.564;2024-02-23T02:52:26;18.25;;;17.02;;
53961;SDS011;39868;53.398;6.564;2024-02-23T02:54:55;19.33;;;17.55;;
53961;SDS011;39868;53.398;6.564;2024-02-23T02:57:22;18.17;;;16.85;;
53961;SDS011;39868;53.398;6.564;2024-02-23T02:59:49;17.88;;;16.88;;
53961;SDS011;39868;53.398;6.564;2024-02-23T03:02:16;18.20;;;17.05;;
53961;SDS011;39868;53.398;6.564;2024-02-23T03:04:47;19.15;;;17.67;;
53961;SDS011;39868;53.398;6.564;2024-02-23T03:07:17;17.90;;;16.60;;
53961;SDS011;39868;53.398;6.564;2024-02-23T03:09:45;18.25;;;17.08;;
53961;SDS011;39868;53.398;6.564;2024-02-23T03:12:12;18.65;;;17.33;;
53961;SDS011;39868;53.398;6.564;2024-02-23T03:14:40;18.00;;;16.65;;
53961;SDS011;39868;53.398;6.564;2024-02-23T03:17:07;18.15;;;16.95;;
53961;SDS011;39868;53.398;6.564;2024-02-23T03:19:36;17.75;;;16.52;;
53961;SDS011;39868;53.398;6.564;2024-02-23T03:22:04;17.85;;;16.60;;
53961;SDS011;39868;53.398;6.564;2024-02-23T03:24:31;17.25;;;16.20;;
53961;SDS011;39868;53.398;6.564;2024-02-23T03:26:59;17.30;;;16.05;;
53961;SDS011;39868;53.398;6.564;2024-02-23T03:29:26;16.92;;;16.13;;
53961;SDS011;39868;53.398;6.564;2024-02-23T03:31:56;18.30;;;16.90;;
53961;SDS011;39868;53.398;6.564;2024-02-23T03:34:24;17.55;;;16.55;;
53961;SDS011;39868;53.398;6.564;2024-02-23T03:36:51;18.65;;;17.40;;
53961;SDS011;39868;53.398;6.564;2024-02-23T03:39:19;17.38;;;16.38;;
53961;SDS011;39868;53.398;6.564;2024-02-23T03:41:46;18.05;;;16.60;;
53961;SDS011;39868;53.398;6.564;2024-02-23T03:44:13;17.10;;;16.02;;
53961;SDS011;39868;53.398;6.564;2024-02-23T03:46:41;17.40;;;16.10;;
53961;SDS011;39868;53.398;6.564;2024-02-23T03:49:08;17.35;;;16.23;;
53961;SDS011;39868;53.398;6.564;2024-02-23T03:51:35;16.48;;;15.52;;
53961;SDS011;39868;53.398;6.564;2024-02-23T03:54:06;17.25;;;16.17;;
53961;SDS011;39868;53.398;6.564;2024-02-23T03:56:40;16.75;;;15.73;;
53961;SDS011;39868;53.398;6.564;2024-02-23T03:59:08;17.23;;;15.90;;
53961;SDS011;39868;53.398;6.564;2024-02-23T04:01:37;17.02;;;15.85;;
53961;SDS011;39868;53.398;6.564;2024-02-23T04:04:06;16.85;;;15.82;;
53961;SDS011;39868;53.398;6.564;2024-02-23T04:06:34;17.00;;;15.98;;
53961;SDS011;39868;53.398;6.564;2024-02-23T04:09:02;16.83;;;16.02;;
53961;SDS011;39868;53.398;6.564;2024-02-23T04:11:33;16.55;;;15.77;;
53961;SDS011;39868;53.398;6.564;2024-02-23T04:14:01;16.95;;;15.95;;
53961;SDS011;39868;53.398;6.564;2024-02-23T04:16:28;17.08;;;16.05;;
53961;SDS011;39868;53.398;6.564;2024-02-23T04:18:55;17.25;;;16.25;;
53961;SDS011;39868;53.398;6.564;2024-02-23T04:21:23;17.70;;;16.50;;
53961;SDS011;39868;53.398;6.564;2024-02-23T04:23:51;16.73;;;15.68;;
53961;SDS011;39868;53.398;6.564;2024-02-23T04:26:18;15.85;;;14.82;;
53961;SDS011;39868;53.398;6.564;2024-02-23T04:28:45;15.50;;;14.53;;
53961;SDS011;39868;53.398;6.564;2024-02-23T04:31:13;15.00;;;14.20;;
53961;SDS011;39868;53.398;6.564;2024-02-23T04:33:40;15.40;;;14.50;;
53961;SDS011;39868;53.398;6.564;2024-02-23T04:36:08;15.07;;;14.30;;
53961;SDS011;39868;53.398;6.564;2024-02-23T04:38:35;16.63;;;15.40;;
53961;SDS011;39868;53.398;6.564;2024-02-23T04:41:03;16.03;;;15.13;;
53961;SDS011;39868;53.398;6.564;2024-02-23T04:43:32;17.10;;;15.87;;
53961;SDS011;39868;53.398;6.564;2024-02-23T04:45:59;16.87;;;15.77;;
53961;SDS011;39868;53.398;6.564;2024-02-23T04:48:26;18.13;;;16.60;;
53961;SDS011;39868;53.398;6.564;2024-02-23T04:50:54;16.80;;;16.00;;
53961;SDS011;39868;53.398;6.564;2024-02-23T04:53:21;17.03;;;16.23;;
53961;SDS011;39868;53.398;6.564;2024-02-23T04:55:48;17.47;;;16.50;;
53961;SDS011;39868;53.398;6.564;2024-02-23T04:58:15;18.40;;;17.10;;
53961;SDS011;39868;53.398;6.564;2024-02-23T05:00:43;16.83;;;15.83;;
53961;SDS011;39868;53.398;6.564;2024-02-23T05:03:10;17.03;;;16.13;;
53961;SDS011;39868;53.398;6.564;2024-02-23T05:05:38;16.77;;;15.80;;
53961;SDS011;39868;53.398;6.564;2024-02-23T05:08:06;17.60;;;16.43;;
53961;SDS011;39868;53.398;6.564;2024-02-23T05:10:34;18.00;;;16.70;;
53961;SDS011;39868;53.398;6.564;2024-02-23T05:13:01;17.17;;;16.10;;
53961;SDS011;39868;53.398;6.564;2024-02-23T05:15:28;17.13;;;16.30;;
53961;SDS011;39868;53.398;6.564;2024-02-23T05:17:55;17.77;;;16.67;;
53961;SDS011;39868;53.398;6.564;2024-02-23T05:20:23;16.60;;;15.90;;
53961;SDS011;39868;53.398;6.564;2024-02-23T05:22:50;17.27;;;16.37;;
53961;SDS011;39868;53.398;6.564;2024-02-23T05:25:17;16.50;;;15.70;;
53961;SDS011;39868;53.398;6.564;2024-02-23T05:27:44;16.67;;;15.50;;
53961;SDS011;39868;53.398;6.564;2024-02-23T05:30:12;17.63;;;16.13;;
53961;SDS011;39868;53.398;6.564;2024-02-23T05:32:39;16.40;;;15.60;;
53961;SDS011;39868;53.398;6.564;2024-02-23T05:35:07;17.00;;;15.80;;
53961;SDS011;39868;53.398;6.564;2024-02-23T05:37:36;16.83;;;15.80;;
53961;SDS011;39868;53.398;6.564;2024-02-23T05:40:06;17.00;;;16.03;;
53961;SDS011;39868;53.398;6.564;2024-02-23T05:42:37;16.27;;;15.33;;
53961;SDS011;39868;53.398;6.564;2024-02-23T05:45:06;17.53;;;16.10;;
53961;SDS011;39868;53.398;6.564;2024-02-23T05:47:38;17.75;;;16.25;;
53961;SDS011;39868;53.398;6.564;2024-02-23T05:50:08;19.70;;;17.80;;
53961;SDS011;39868;53.398;6.564;2024-02-23T05:52:38;18.77;;;17.00;;
53961;SDS011;39868;53.398;6.564;2024-02-23T05:55:06;17.67;;;16.30;;
53961;SDS011;39868;53.398;6.564;2024-02-23T05:57:34;16.70;;;15.50;;
53961;SDS011;39868;53.398;6.564;2024-02-23T06:00:02;18.53;;;16.73;;
53961;SDS011;39868;53.398;6.564;2024-02-23T06:02:37;17.43;;;16.20;;
53961;SDS011;39868;53.398;6.564;2024-02-23T06:05:05;17.57;;;16.50;;
53961;SDS011;39868;53.398;6.564;2024-02-23T06:07:34;18.60;;;17.20;;
53961;SDS011;39868;53.398;6.564;2024-02-23T06:10:03;18.93;;;17.17;;
53961;SDS011;39868;53.398;6.564;2024-02-23T06:12:31;18.00;;;16.80;;
53961;SDS011;39868;53.398;6.564;2024-02-23T06:14:59;19.70;;;17.83;;
53961;SDS011;39868;53.398;6.564;2024-02-23T06:17:26;23.40;;;21.10;;
53961;SDS011;39868;53.398;6.564;2024-02-23T06:19:54;26.07;;;23.47;;
53961;SDS011;39868;53.398;6.564;2024-02-23T06:22:24;19.27;;;17.87;;
53961;SDS011;39868;53.398;6.564;2024-02-23T06:24:52;18.07;;;17.00;;
53961;SDS011;39868;53.398;6.564;2024-02-23T06:27:19;17.10;;;16.20;;
53961;SDS011;39868;53.398;6.564;2024-02-23T06:29:48;17.43;;;16.33;;
53961;SDS011;39868;53.398;6.564;2024-02-23T06:32:15;17.20;;;16.30;;
53961;SDS011;39868;53.398;6.564;2024-02-23T06:34:43;17.87;;;16.70;;
53961;SDS011;39868;53.398;6.564;2024-02-23T06:37:10;17.20;;;16.20;;
53961;SDS011;39868;53.398;6.564;2024-02-23T06:39:37;19.03;;;17.90;;
53961;SDS011;39868;53.398;6.564;2024-02-23T06:42:05;17.60;;;16.40;;
53961;SDS011;39868;53.398;6.564;2024-02-23T06:44:32;18.27;;;16.57;;
53961;SDS011;39868;53.398;6.564;2024-02-23T06:47:00;17.93;;;16.63;;
53961;SDS011;39868;53.398;6.564;2024-02-23T06:49:27;17.60;;;16.30;;
53961;SDS011;39868;53.398;6.564;2024-02-23T06:51:54;17.77;;;16.47;;
53961;SDS011;39868;53.398;6.564;2024-02-23T06:54:22;17.73;;;16.73;;
53961;SDS011;39868;53.398;6.564;2024-02-23T06:56:49;18.13;;;16.50;;
53961;SDS011;39868;53.398;6.564;2024-02-23T06:59:16;18.03;;;16.90;;
53961;SDS011;39868;53.398;6.564;2024-02-23T07:01:48;17.97;;;16.93;;
53961;SDS011;39868;53.398;6.564;2024-02-23T07:04:18;17.70;;;16.60;;
53961;SDS011;39868;53.398;6.564;2024-02-23T07:06:46;17.60;;;16.53;;
53961;SDS011;39868;53.398;6.564;2024-02-23T07:09:13;18.07;;;16.83;;
53961;SDS011;39868;53.398;6.564;2024-02-23T07:11:40;18.17;;;16.97;;
53961;SDS011;39868;53.398;6.564;2024-02-23T07:14:10;17.93;;;16.43;;
53961;SDS011;39868;53.398;6.564;2024-02-23T07:16:40;17.90;;;16.60;;
53961;SDS011;39868;53.398;6.564;2024-02-23T07:19:08;17.87;;;16.67;;
53961;SDS011;39868;53.398;6.564;2024-02-23T07:21:36;18.47;;;17.27;;
53961;SDS011;39868;53.398;6.564;2024-02-23T07:24:07;19.30;;;17.70;;
53961;SDS011;39868;53.398;6.564;2024-02-23T07:26:35;17.83;;;16.57;;
53961;SDS011;39868;53.398;6.564;2024-02-23T07:29:02;18.17;;;16.57;;
53961;SDS011;39868;53.398;6.564;2024-02-23T07:31:30;17.95;;;16.73;;
53961;SDS011;39868;53.398;6.564;2024-02-23T07:33:57;17.33;;;16.27;;
53961;SDS011;39868;53.398;6.564;2024-02-23T07:36:24;18.10;;;16.70;;
53961;SDS011;39868;53.398;6.564;2024-02-23T07:38:52;19.57;;;17.67;;
53961;SDS011;39868;53.398;6.564;2024-02-23T07:41:19;18.57;;;17.30;;
53961;SDS011;39868;53.398;6.564;2024-02-23T07:43:46;19.03;;;17.43;;
53961;SDS011;39868;53.398;6.564;2024-02-23T07:46:14;18.40;;;16.77;;
53961;SDS011;39868;53.398;6.564;2024-02-23T07:48:43;19.42;;;17.77;;
53961;SDS011;39868;53.398;6.564;2024-02-23T07:51:10;18.90;;;17.50;;
53961;SDS011;39868;53.398;6.564;2024-02-23T07:53:37;20.73;;;18.87;;
53961;SDS011;39868;53.398;6.564;2024-02-23T07:56:07;18.80;;;17.48;;
53961;SDS011;39868;53.398;6.564;2024-02-23T07:58:34;18.83;;;17.52;;
53961;SDS011;39868;53.398;6.564;2024-02-23T08:01:02;19.37;;;17.57;;
53961;SDS011;39868;53.398;6.564;2024-02-23T08:03:29;17.83;;;16.63;;
53961;SDS011;39868;53.398;6.564;2024-02-23T08:05:56;18.57;;;17.17;;
53961;SDS011;39868;53.398;6.564;2024-02-23T08:08:28;17.52;;;16.40;;
53961;SDS011;39868;53.398;6.564;2024-02-23T08:10:59;17.80;;;16.40;;
53961;SDS011;39868;53.398;6.564;2024-02-23T08:13:27;16.50;;;15.50;;
53961;SDS011;39868;53.398;6.564;2024-02-23T08:15:54;18.23;;;16.98;;
53961;SDS011;39868;53.398;6.564;2024-02-23T08:18:21;17.50;;;15.85;;
53961;SDS011;39868;53.398;6.564;2024-02-23T08:20:51;17.48;;;16.17;;
53961;SDS011;39868;53.398;6.564;2024-02-23T08:23:18;18.15;;;16.85;;
53961;SDS011;39868;53.398;6.564;2024-02-23T08:25:46;17.67;;;16.27;;
53961;SDS011;39868;53.398;6.564;2024-02-23T08:28:14;17.48;;;16.02;;
53961;SDS011;39868;53.398;6.564;2024-02-23T08:30:41;17.42;;;16.48;;
53961;SDS011;39868;53.398;6.564;2024-02-23T08:33:08;16.90;;;15.85;;
53961;SDS011;39868;53.398;6.564;2024-02-23T08:35:36;17.90;;;16.60;;
53961;SDS011;39868;53.398;6.564;2024-02-23T08:38:04;17.20;;;15.90;;
53961;SDS011;39868;53.398;6.564;2024-02-23T08:40:31;17.23;;;16.02;;
53961;SDS011;39868;53.398;6.564;2024-02-23T08:42:59;16.60;;;15.40;;
53961;SDS011;39868;53.398;6.564;2024-02-23T08:45:26;15.45;;;14.55;;
53961;SDS011;39868;53.398;6.564;2024-02-23T08:47:54;16.02;;;15.10;;
53961;SDS011;39868;53.398;6.564;2024-02-23T08:50:21;17.73;;;16.60;;
53961;SDS011;39868;53.398;6.564;2024-02-23T08:52:48;16.77;;;15.65;;
53961;SDS011;39868;53.398;6.564;2024-02-23T08:55:16;16.42;;;15.40;;
53961;SDS011;39868;53.398;6.564;2024-02-23T08:57:44;16.00;;;15.10;;
53961;SDS011;39868;53.398;6.564;2024-02-23T09:00:11;16.13;;;15.00;;
53961;SDS011;39868;53.398;6.564;2024-02-23T09:02:43;16.15;;;15.00;;
53961;SDS011;39868;53.398;6.564;2024-02-23T09:05:11;15.50;;;14.60;;
53961;SDS011;39868;53.398;6.564;2024-02-23T09:07:38;15.50;;;14.35;;
53961;SDS011;39868;53.398;6.564;2024-02-23T09:10:06;15.10;;;14.40;;
53961;SDS011;39868;53.398;6.564;2024-02-23T09:12:34;15.48;;;14.55;;
53961;SDS011;39868;53.398;6.564;2024-02-23T09:15:01;14.95;;;14.00;;
53961;SDS011;39868;53.398;6.564;2024-02-23T09:17:29;15.35;;;14.18;;
53961;SDS011;39868;53.398;6.564;2024-02-23T09:19:57;14.73;;;13.93;;
53961;SDS011;39868;53.398;6.564;2024-02-23T09:22:24;14.18;;;13.48;;
53961;SDS011;39868;53.398;6.564;2024-02-23T09:24:51;13.98;;;13.27;;
53961;SDS011;39868;53.398;6.564;2024-02-23T09:27:21;14.35;;;13.38;;
53961;SDS011;39868;53.398;6.564;2024-02-23T09:29:49;13.98;;;13.18;;
53961;SDS011;39868;53.398;6.564;2024-02-23T09:32:16;14.27;;;13.13;;
53961;SDS011;39868;53.398;6.564;2024-02-23T09:34:44;15.20;;;14.18;;
53961;SDS011;39868;53.398;6.564;2024-02-23T09:37:11;15.25;;;14.00;;
53961;SDS011;39868;53.398;6.564;2024-02-23T09:39:38;15.35;;;14.40;;
53961;SDS011;39868;53.398;6.564;2024-02-23T09:42:09;14.00;;;13.35;;
53961;SDS011;39868;53.398;6.564;2024-02-23T09:44:39;15.80;;;14.50;;
53961;SDS011;39868;53.398;6.564;2024-02-23T09:47:11;17.58;;;15.98;;
53961;SDS011;39868;53.398;6.564;2024-02-23T09:49:40;15.60;;;14.40;;
53961;SDS011;39868;53.398;6.564;2024-02-23T09:52:07;15.82;;;14.50;;
53961;SDS011;39868;53.398;6.564;2024-02-23T09:54:38;15.10;;;13.82;;
53961;SDS011;39868;53.398;6.564;2024-02-23T09:57:07;14.07;;;13.07;;
53961;SDS011;39868;53.398;6.564;2024-02-23T09:59:35;14.88;;;13.95;;
53961;SDS011;39868;53.398;6.564;2024-02-23T10:02:09;14.65;;;13.75;;
53961;SDS011;39868;53.398;6.564;2024-02-23T10:04:41;15.88;;;14.45;;
53961;SDS011;39868;53.398;6.564;2024-02-23T10:07:15;13.77;;;12.68;;
53961;SDS011;39868;53.398;6.564;2024-02-23T10:09:43;13.82;;;12.65;;
53961;SDS011;39868;53.398;6.564;2024-02-23T10:12:10;13.32;;;12.45;;
53961;SDS011;39868;53.398;6.564;2024-02-23T10:14:40;13.07;;;12.27;;
53961;SDS011;39868;53.398;6.564;2024-02-23T10:17:08;14.10;;;13.32;;
53961;SDS011;39868;53.398;6.564;2024-02-23T10:19:36;13.50;;;12.38;;
53961;SDS011;39868;53.398;6.564;2024-02-23T10:22:04;13.38;;;12.38;;
53961;SDS011;39868;53.398;6.564;2024-02-23T10:24:31;12.18;;;11.57;;
53961;SDS011;39868;53.398;6.564;2024-02-23T10:27:00;12.85;;;12.00;;
53961;SDS011;39868;53.398;6.564;2024-02-23T10:29:29;12.77;;;11.95;;
53961;SDS011;39868;53.398;6.564;2024-02-23T10:31:57;12.60;;;11.70;;
53961;SDS011;39868;53.398;6.564;2024-02-23T10:34:25;12.27;;;11.48;;
53961;SDS011;39868;53.398;6.564;2024-02-23T10:36:56;12.15;;;11.35;;
53961;SDS011;39868;53.398;6.564;2024-02-23T10:39:24;13.18;;;12.18;;
53961;SDS011;39868;53.398;6.564;2024-02-23T10:41:57;12.85;;;12.15;;
53961;SDS011;39868;53.398;6.564;2024-02-23T10:44:30;13.10;;;12.48;;
53961;SDS011;39868;53.398;6.564;2024-02-23T10:46:58;13.13;;;12.27;;
53961;SDS011;39868;53.398;6.564;2024-02-23T10:49:26;14.15;;;13.05;;
53961;SDS011;39868;53.398;6.564;2024-02-23T10:51:55;13.93;;;12.93;;
53961;SDS011;39868;53.398;6.564;2024-02-23T10:54:23;14.57;;;13.57;;
53961;SDS011;39868;53.398;6.564;2024-02-23T10:56:50;14.90;;;13.73;;
53961;SDS011;39868;53.398;6.564;2024-02-23T10:59:19;13.60;;;12.68;;
53961;SDS011;39868;53.398;6.564;2024-02-23T11:01:49;14.27;;;13.10;;
53961;SDS011;39868;53.398;6.564;2024-02-23T11:04:19;13.10;;;12.30;;
53961;SDS011;39868;53.398;6.564;2024-02-23T11:06:51;13.40;;;12.05;;
53961;SDS011;39868;53.398;6.564;2024-02-23T11:09:23;13.73;;;12.55;;
53961;SDS011;39868;53.398;6.564;2024-02-23T11:11:52;14.07;;;12.93;;
53961;SDS011;39868;53.398;6.564;2024-02-23T11:14:31;13.60;;;12.80;;
53961;SDS011;39868;53.398;6.564;2024-02-23T11:17:04;13.27;;;12.45;;
53961;SDS011;39868;53.398;6.564;2024-02-23T11:19:36;13.00;;;12.30;;
53961;SDS011;39868;53.398;6.564;2024-02-23T11:22:11;13.30;;;12.60;;
53961;SDS011;39868;53.398;6.564;2024-02-23T11:24:51;15.77;;;13.98;;
53961;SDS011;39868;53.398;6.564;2024-02-23T11:27:21;14.95;;;13.80;;
53961;SDS011;39868;53.398;6.564;2024-02-23T11:32:46;14.50;;;13.48;;
53961;SDS011;39868;53.398;6.564;2024-02-23T11:35:16;13.70;;;12.90;;
53961;SDS011;39868;53.398;6.564;2024-02-23T11:37:52;13.38;;;12.40;;
53961;SDS011;39868;53.398;6.564;2024-02-23T11:40:31;13.25;;;12.50;;
53961;SDS011;39868;53.398;6.564;2024-02-23T11:42:59;13.55;;;12.52;;
53961;SDS011;39868;53.398;6.564;2024-02-23T11:45:30;13.57;;;12.85;;
53961;SDS011;39868;53.398;6.564;2024-02-23T11:47:58;12.23;;;11.52;;
53961;SDS011;39868;53.398;6.564;2024-02-23T11:50:26;11.88;;;11.20;;
53961;SDS011;39868;53.398;6.564;2024-02-23T11:52:54;12.18;;;11.57;;
53961;SDS011;39868;53.398;6.564;2024-02-23T11:55:22;12.40;;;11.80;;
53961;SDS011;39868;53.398;6.564;2024-02-23T11:57:50;12.70;;;11.90;;
53961;SDS011;39868;53.398;6.564;2024-02-23T12:00:31;12.02;;;11.43;;
53961;SDS011;39868;53.398;6.564;2024-02-23T12:02:59;12.23;;;11.70;;
53961;SDS011;39868;53.398;6.564;2024-02-23T12:05:26;12.38;;;11.82;;
53961;SDS011;39868;53.398;6.564;2024-02-23T12:07:55;12.95;;;12.05;;
53961;SDS011;39868;53.398;6.564;2024-02-23T12:10:25;12.85;;;11.95;;
53961;SDS011;39868;53.398;6.564;2024-02-23T12:12:53;11.80;;;11.30;;
53961;SDS011;39868;53.398;6.564;2024-02-23T12:15:22;12.63;;;11.68;;
53961;SDS011;39868;53.398;6.564;2024-02-23T12:17:50;12.55;;;11.82;;
53961;SDS011;39868;53.398;6.564;2024-02-23T12:20:18;11.88;;;11.05;;
53961;SDS011;39868;53.398;6.564;2024-02-23T12:22:46;11.25;;;10.73;;
53961;SDS011;39868;53.398;6.564;2024-02-23T12:25:15;11.70;;;11.10;;
53961;SDS011;39868;53.398;6.564;2024-02-23T12:27:43;11.90;;;11.30;;
53961;SDS011;39868;53.398;6.564;2024-02-23T12:30:14;11.77;;;11.18;;
53961;SDS011;39868;53.398;6.564;2024-02-23T12:32:45;12.07;;;11.35;;
53961;SDS011;39868;53.398;6.564;2024-02-23T12:35:12;11.63;;;11.02;;
53961;SDS011;39868;53.398;6.564;2024-02-23T12:37:42;12.00;;;11.40;;
53961;SDS011;39868;53.398;6.564;2024-02-23T12:40:11;12.60;;;11.75;;
53961;SDS011;39868;53.398;6.564;2024-02-23T12:42:39;11.85;;;11.27;;
53961;SDS011;39868;53.398;6.564;2024-02-23T12:45:07;11.50;;;10.80;;
53961;SDS011;39868;53.398;6.564;2024-02-23T12:47:35;11.80;;;11.05;;
53961;SDS011;39868;53.398;6.564;2024-02-23T12:50:02;11.32;;;10.73;;
53961;SDS011;39868;53.398;6.564;2024-02-23T12:52:30;11.68;;;11.07;;
53961;SDS011;39868;53.398;6.564;2024-02-23T12:54:58;11.85;;;11.15;;
53961;SDS011;39868;53.398;6.564;2024-02-23T12:57:25;12.10;;;11.40;;
53961;SDS011;39868;53.398;6.564;2024-02-23T12:59:53;11.60;;;11.00;;
53961;SDS011;39868;53.398;6.564;2024-02-23T13:02:20;11.27;;;10.60;;
53961;SDS011;39868;53.398;6.564;2024-02-23T13:04:48;11.98;;;11.10;;
53961;SDS011;39868;53.398;6.564;2024-02-23T13:07:16;11.60;;;10.90;;
53961;SDS011;39868;53.398;6.564;2024-02-23T13:09:44;11.63;;;11.05;;
53961;SDS011;39868;53.398;6.564;2024-02-23T13:12:11;11.95;;;11.27;;
53961;SDS011;39868;53.398;6.564;2024-02-23T13:14:41;11.65;;;10.95;;
53961;SDS011;39868;53.398;6.564;2024-02-23T13:17:09;12.05;;;11.20;;
53961;SDS011;39868;53.398;6.564;2024-02-23T13:19:37;12.10;;;11.38;;
53961;SDS011;39868;53.398;6.564;2024-02-23T13:22:04;11.50;;;10.82;;
53961;SDS011;39868;53.398;6.564;2024-02-23T13:24:32;11.85;;;10.90;;
53961;SDS011;39868;53.398;6.564;2024-02-23T13:26:59;11.95;;;11.45;;
53961;SDS011;39868;53.398;6.564;2024-02-23T13:29:26;12.43;;;11.60;;
53961;SDS011;39868;53.398;6.564;2024-02-23T13:31:54;13.25;;;12.48;;
53961;SDS011;39868;53.398;6.564;2024-02-23T13:34:21;14.32;;;13.38;;
53961;SDS011;39868;53.398;6.564;2024-02-23T13:36:49;15.18;;;13.90;;
53961;SDS011;39868;53.398;6.564;2024-02-23T13:39:19;13.25;;;12.60;;
53961;SDS011;39868;53.398;6.564;2024-02-23T13:41:46;13.30;;;12.40;;
53961;SDS011;39868;53.398;6.564;2024-02-23T13:44:14;13.32;;;12.52;;
53961;SDS011;39868;53.398;6.564;2024-02-23T13:46:41;13.23;;;12.60;;
53961;SDS011;39868;53.398;6.564;2024-02-23T13:49:09;13.50;;;12.75;;
53961;SDS011;39868;53.398;6.564;2024-02-23T13:51:39;13.43;;;12.63;;
53961;SDS011;39868;53.398;6.564;2024-02-23T13:54:06;13.95;;;13.20;;
53961;SDS011;39868;53.398;6.564;2024-02-23T13:56:33;13.85;;;13.07;;
53961;SDS011;39868;53.398;6.564;2024-02-23T13:59:01;13.73;;;13.00;;
53961;SDS011;39868;53.398;6.564;2024-02-23T14:01:29;13.85;;;12.90;;
53961;SDS011;39868;53.398;6.564;2024-02-23T14:03:56;14.02;;;13.32;;
53961;SDS011;39868;53.398;6.564;2024-02-23T14:06:23;13.90;;;13.30;;
53961;SDS011;39868;53.398;6.564;2024-02-23T14:08:51;14.25;;;13.60;;
53961;SDS011;39868;53.398;6.564;2024-02-23T14:11:18;14.57;;;13.77;;
53961;SDS011;39868;53.398;6.564;2024-02-23T14:13:46;15.05;;;14.18;;
53961;SDS011;39868;53.398;6.564;2024-02-23T14:16:17;14.35;;;13.60;;
53961;SDS011;39868;53.398;6.564;2024-02-23T14:18:44;13.70;;;12.85;;
53961;SDS011;39868;53.398;6.564;2024-02-23T14:21:11;13.55;;;12.85;;
53961;SDS011;39868;53.398;6.564;2024-02-23T14:23:41;13.65;;;12.85;;
53961;SDS011;39868;53.398;6.564;2024-02-23T14:26:08;13.52;;;12.82;;
53961;SDS011;39868;53.398;6.564;2024-02-23T14:28:36;14.38;;;13.68;;
53961;SDS011;39868;53.398;6.564;2024-02-23T14:31:03;15.27;;;14.07;;